Time;durP1;ratioP1;P1;durP2;ratioP2;P2;SDS_P1;SDS_P2;PMS_P1;PMS_P2;Temp;Humidity;BMP_temperature;BMP_pressure;BME280_temperature;BME280_humidity;BME280_pressure;Samples;Min_cycle;Max_cycle;Signal;HPM_P1;HPM_P2
2021/09/30 00:00:00;;;;;;;4.25;1.50;;;9.40;99.90;;;;;;4955076;28;20040;-71
2021/09/30 00:02:26;;;;;;;6.13;1.77;;;9.30;99.90;;;;;;4955404;28;20102;-70
2021/09/30 00:04:51;;;;;;;7.80;1.88;;;9.10;99.90;;;;;;4954534;28;20118;-70
2021/09/30 00:07:17;;;;;;;5.95;1.60;;;9.10;99.90;;;;;;4967261;28;20086;-70
2021/09/30 00:09:45;;;;;;;5.25;1.80;;;9.20;99.90;;;;;;4978652;28;20031;-70
2021/09/30 00:12:25;;;;;;;4.07;1.55;;;9.10;99.90;;;;;;4978495;28;20016;-70
2021/09/30 00:15:12;;;;;;;3.28;1.67;;;9.00;99.90;;;;;;4979215;28;20083;-70
2021/09/30 00:46:59;;;;;;;2.17;1.40;;;8.50;99.90;;;;;;5011853;28;20037;-73
2021/09/30 00:49:27;;;;;;;5.97;1.50;;;8.40;99.90;;;;;;5014581;28;20046;-73
2021/09/30 01:30:55;;;;;;;6.00;2.10;;;7.80;99.90;;;;;;4974531;28;20082;-73
2021/09/30 02:24:10;;;;;;;4.03;2.10;;;7.20;99.90;;;;;;4996545;28;20053;-73
2021/09/30 02:26:56;;;;;;;7.78;1.77;;;7.20;99.90;;;;;;4995939;28;20513;-73
2021/09/30 02:29:38;;;;;;;1.80;1.63;;;7.20;99.90;;;;;;4996309;28;20022;-73
2021/09/30 02:59:51;;;;;;;4.40;1.80;;;7.00;99.90;;;;;;4994468;28;20049;-74
2021/09/30 03:02:19;;;;;;;6.65;1.70;;;6.90;99.90;;;;;;4994175;28;20031;-74
2021/09/30 03:04:46;;;;;;;6.43;1.88;;;6.90;99.90;;;;;;5001763;28;20061;-73
2021/09/30 03:07:12;;;;;;;2.85;1.83;;;6.90;99.90;;;;;;5013421;28;20026;-74
2021/09/30 03:09:42;;;;;;;6.32;1.90;;;6.80;99.90;;;;;;5013435;28;20025;-74
2021/09/30 03:12:27;;;;;;;6.78;2.00;;;6.70;99.90;;;;;;5008329;28;20096;-74
2021/09/30 03:17:54;;;;;;;3.00;2.00;;;6.70;99.90;;;;;;4994097;28;20026;-74
2021/09/30 03:20:38;;;;;;;3.65;2.42;;;6.60;99.90;;;;;;4993911;28;20473;-74
2021/09/30 03:23:18;;;;;;;2.83;1.90;;;6.60;99.90;;;;;;4993863;28;20031;-73
2021/09/30 03:25:47;;;;;;;2.03;1.92;;;6.60;99.90;;;;;;4993262;28;20084;-73
2021/09/30 03:28:15;;;;;;;2.55;1.80;;;6.50;99.90;;;;;;4993847;28;20019;-74
2021/09/30 03:30:42;;;;;;;6.50;2.15;;;6.50;99.90;;;;;;4993857;28;20406;-73
2021/09/30 03:33:08;;;;;;;5.35;1.75;;;6.50;99.90;;;;;;4993924;28;20096;-74
2021/09/30 03:35:35;;;;;;;2.10;1.90;;;6.50;99.90;;;;;;4956327;28;1110273;-74
2021/09/30 03:38:03;;;;;;;6.57;2.42;;;6.50;99.90;;;;;;4996495;28;20503;-74
2021/09/30 03:40:29;;;;;;;4.43;1.60;;;6.40;99.90;;;;;;4994255;28;20022;-74
2021/09/30 03:42:55;;;;;;;2.30;1.52;;;6.50;99.90;;;;;;4994748;28;20093;-74
2021/09/30 03:45:21;;;;;;;2.28;2.08;;;6.50;99.90;;;;;;4993864;28;20118;-73
2021/09/30 03:47:47;;;;;;;2.25;2.08;;;6.50;99.90;;;;;;4994473;28;20038;-74
2021/09/30 03:50:23;;;;;;;5.10;1.80;;;6.40;99.90;;;;;;4995071;28;20109;-75
2021/09/30 03:55:36;;;;;;;3.13;1.90;;;6.40;99.90;;;;;;4994158;28;20058;-73
2021/09/30 04:00:47;;;;;;;3.00;1.73;;;6.30;99.90;;;;;;4994344;28;20397;-74
2021/09/30 04:03:12;;;;;;;2.88;1.90;;;6.20;99.90;;;;;;4994137;28;20022;-74
2021/09/30 04:05:38;;;;;;;2.40;2.20;;;6.20;99.90;;;;;;4993431;28;20029;-74
2021/09/30 04:08:04;;;;;;;7.70;2.40;;;6.20;99.90;;;;;;4993888;28;20033;-74
2021/09/30 04:10:30;;;;;;;3.42;1.88;;;6.20;99.90;;;;;;4993832;28;20026;-74
2021/09/30 04:12:56;;;;;;;2.10;1.90;;;6.20;99.90;;;;;;4993897;28;20370;-74
2021/09/30 04:15:21;;;;;;;4.93;2.33;;;6.10;99.90;;;;;;4993897;28;20034;-74
2021/09/30 04:17:47;;;;;;;3.63;2.22;;;6.00;99.90;;;;;;4987963;28;20551;-73
2021/09/30 04:20:13;;;;;;;3.20;2.13;;;6.00;99.90;;;;;;5007794;28;20022;-74
2021/09/30 04:22:40;;;;;;;4.55;2.40;;;6.00;99.90;;;;;;5012755;28;20026;-74
2021/09/30 04:25:07;;;;;;;5.38;2.10;;;6.00;99.90;;;;;;5012899;28;20028;-74
2021/09/30 04:27:33;;;;;;;3.75;2.00;;;5.90;99.90;;;;;;5013557;28;20487;-73
2021/09/30 04:29:59;;;;;;;5.18;2.95;;;6.00;99.90;;;;;;5012509;28;20057;-73
2021/09/30 04:32:25;;;;;;;3.22;2.38;;;6.00;99.90;;;;;;5013521;28;20030;-73
2021/09/30 04:34:50;;;;;;;4.53;2.10;;;6.00;99.90;;;;;;5012757;28;20125;-73
2021/09/30 04:37:16;;;;;;;3.13;2.38;;;5.90;99.90;;;;;;5011985;28;20030;-74
2021/09/30 04:39:42;;;;;;;5.22;2.10;;;5.80;99.90;;;;;;5013094;28;20018;-74
2021/09/30 04:42:08;;;;;;;4.13;2.30;;;5.90;99.90;;;;;;5008857;28;20074;-71
2021/09/30 04:44:33;;;;;;;3.20;2.38;;;5.80;99.90;;;;;;4992758;28;20802;-72
2021/09/30 04:46:59;;;;;;;6.47;2.58;;;5.90;99.90;;;;;;4993702;28;20029;-71
2021/09/30 04:49:25;;;;;;;5.00;2.88;;;5.80;99.90;;;;;;4993221;28;20105;-71
2021/09/30 04:51:50;;;;;;;4.70;2.55;;;5.80;99.90;;;;;;4993081;28;20033;-73
2021/09/30 04:54:16;;;;;;;4.63;2.50;;;5.80;99.90;;;;;;4993322;28;20540;-71
2021/09/30 04:56:42;;;;;;;4.88;2.67;;;5.80;99.90;;;;;;4993163;28;20424;-73
2021/09/30 04:59:07;;;;;;;5.43;2.05;;;5.70;99.90;;;;;;4990709;28;20026;-80
2021/09/30 05:01:34;;;;;;;3.25;2.22;;;5.70;99.90;;;;;;4988731;28;20093;-78
2021/09/30 05:04:00;;;;;;;3.60;2.30;;;5.80;99.90;;;;;;4992902;28;20073;-77
2021/09/30 05:06:25;;;;;;;7.38;2.35;;;5.60;99.90;;;;;;5001485;28;20029;-79
2021/09/30 05:08:56;;;;;;;4.70;2.80;;;5.60;99.90;;;;;;5027597;28;20053;-79
2021/09/30 05:11:22;;;;;;;2.88;2.58;;;5.60;99.90;;;;;;5013127;28;20026;-78
2021/09/30 05:13:53;;;;;;;4.68;2.35;;;5.50;99.90;;;;;;4994898;28;20038;-78
2021/09/30 05:16:18;;;;;;;4.90;2.65;;;5.50;99.90;;;;;;4992229;28;20026;-78
2021/09/30 05:18:49;;;;;;;5.20;2.83;;;5.50;99.90;;;;;;5004107;28;20395;-79
2021/09/30 05:21:15;;;;;;;4.82;2.97;;;5.50;99.90;;;;;;5012627;28;20022;-79
2021/09/30 05:23:40;;;;;;;5.68;3.03;;;5.50;99.90;;;;;;5027455;28;20117;-78
2021/09/30 05:26:07;;;;;;;3.55;3.20;;;5.50;99.90;;;;;;5010346;28;20484;-78
2021/09/30 05:28:32;;;;;;;4.15;3.20;;;5.60;99.90;;;;;;5012031;28;20099;-78
2021/09/30 05:30:58;;;;;;;6.63;2.65;;;5.60;99.90;;;;;;5012807;28;20030;-78
2021/09/30 05:33:24;;;;;;;3.38;3.10;;;5.60;99.90;;;;;;5021668;28;20053;-79
2021/09/30 05:35:50;;;;;;;4.22;2.45;;;5.50;99.90;;;;;;5030181;28;20037;-80
2021/09/30 05:38:16;;;;;;;4.78;2.95;;;5.50;99.90;;;;;;5024486;28;20033;-79
2021/09/30 05:40:42;;;;;;;3.42;3.13;;;5.50;99.90;;;;;;5013325;28;20098;-80
2021/09/30 05:43:10;;;;;;;8.93;3.03;;;5.50;99.90;;;;;;4982964;28;20050;-79
2021/09/30 05:45:41;;;;;;;4.25;2.63;;;5.50;99.90;;;;;;4972523;28;20061;-77
2021/09/30 05:48:08;;;;;;;4.10;2.50;;;5.40;99.90;;;;;;4973443;28;20031;-80
2021/09/30 05:50:34;;;;;;;2.35;2.10;;;5.40;99.90;;;;;;4973704;28;20493;-81
2021/09/30 05:53:00;;;;;;;3.67;2.70;;;5.40;99.90;;;;;;4973111;28;20472;-79
2021/09/30 05:55:25;;;;;;;6.63;2.67;;;5.50;99.90;;;;;;4973148;28;20023;-80
2021/09/30 05:57:51;;;;;;;4.95;3.28;;;5.30;99.90;;;;;;4988667;28;20027;-79
2021/09/30 06:14:24;;;;;;;6.82;3.85;;;5.50;99.90;;;;;;4972837;28;20101;-79
2021/09/30 06:16:45;;;;;;;;;;;5.50;99.90;;;;;;4971854;28;20051;-82
2021/09/30 06:19:20;;;;;;;5.82;3.90;;;5.60;99.90;;;;;;4977881;28;20000;-78
2021/09/30 06:21:47;;;;;;;6.38;3.58;;;5.60;99.90;;;;;;4977686;28;20050;-79
2021/09/30 06:24:13;;;;;;;11.00;4.25;;;5.80;99.90;;;;;;4978202;28;20027;-78
2021/09/30 06:26:39;;;;;;;7.38;4.70;;;6.00;99.90;;;;;;4972277;28;20035;-79
2021/09/30 06:29:04;;;;;;;6.38;4.82;;;5.90;99.90;;;;;;4972687;28;20520;-77
2021/09/30 06:31:30;;;;;;;8.27;4.32;;;6.00;99.90;;;;;;4973014;28;20039;-77
2021/09/30 06:33:56;;;;;;;8.27;4.45;;;6.10;99.90;;;;;;4972952;28;20085;-77
2021/09/30 06:36:21;;;;;;;5.15;3.60;;;6.20;99.90;;;;;;4972007;28;20043;-79
2021/09/30 06:38:47;;;;;;;8.82;4.72;;;6.30;99.90;;;;;;4972133;28;20561;-77
2021/09/30 06:41:13;;;;;;;11.73;4.70;;;6.40;99.90;;;;;;4972514;28;20031;-77
2021/09/30 06:43:38;;;;;;;4.65;4.05;;;6.40;99.90;;;;;;4991015;28;20086;-79
2021/09/30 06:46:04;;;;;;;9.07;5.13;;;6.40;99.90;;;;;;5002492;28;20508;-79
2021/09/30 06:48:30;;;;;;;8.13;4.00;;;6.60;99.90;;;;;;4995486;28;20030;-78
2021/09/30 06:50:55;;;;;;;6.85;4.20;;;6.70;99.90;;;;;;4995664;28;20443;-78
2021/09/30 06:53:22;;;;;;;7.07;4.55;;;6.70;99.90;;;;;;4994743;28;20037;-77
2021/09/30 06:55:48;;;;;;;7.15;3.92;;;6.80;99.90;;;;;;5008444;28;20034;-77
2021/09/30 06:58:14;;;;;;;8.50;4.78;;;6.90;99.90;;;;;;5015597;28;20030;-77
2021/09/30 07:00:41;;;;;;;6.57;4.22;;;7.00;99.90;;;;;;5017935;28;20542;-78
2021/09/30 07:03:08;;;;;;;12.75;4.82;;;7.10;99.90;;;;;;5015531;28;20595;-78
2021/09/30 07:05:34;;;;;;;6.88;4.05;;;7.00;99.90;;;;;;5014963;28;20350;-78
2021/09/30 07:08:02;;;;;;;8.02;4.07;;;7.20;99.90;;;;;;5015207;28;20559;-78
2021/09/30 07:10:28;;;;;;;7.55;3.72;;;7.40;99.90;;;;;;5015273;28;20507;-78
2021/09/30 07:12:53;;;;;;;4.53;3.60;;;7.50;99.90;;;;;;5004784;28;20026;-77
2021/09/30 07:15:19;;;;;;;6.28;3.42;;;7.60;99.90;;;;;;4993677;28;20117;-77
2021/09/30 07:17:45;;;;;;;6.63;3.38;;;7.70;99.90;;;;;;4995251;28;20420;-78
2021/09/30 07:20:11;;;;;;;8.32;3.83;;;7.80;99.90;;;;;;4995710;28;20030;-79
2021/09/30 07:22:37;;;;;;;3.92;3.22;;;8.00;99.90;;;;;;4984179;28;20026;-78
2021/09/30 07:25:04;;;;;;;7.82;3.33;;;8.20;99.90;;;;;;4995213;28;20499;-79
2021/09/30 07:27:29;;;;;;;7.00;2.97;;;8.30;99.90;;;;;;4996017;28;20061;-77
2021/09/30 07:29:55;;;;;;;6.07;2.88;;;8.40;99.90;;;;;;4995657;28;20054;-78
2021/09/30 07:32:22;;;;;;;8.07;2.30;;;8.50;99.90;;;;;;4993735;28;20037;-78
2021/09/30 07:34:47;;;;;;;9.13;2.78;;;8.60;99.90;;;;;;4995022;28;20026;-78
2021/09/30 07:37:13;;;;;;;3.60;1.80;;;8.70;99.90;;;;;;4995683;28;20039;-78
2021/09/30 07:39:39;;;;;;;10.15;1.83;;;8.70;99.90;;;;;;4994943;28;20083;-77
2021/09/30 07:42:05;;;;;;;2.47;1.50;;;8.80;99.90;;;;;;4995665;28;20061;-78
2021/09/30 07:44:33;;;;;;;5.85;1.90;;;9.00;99.90;;;;;;4994830;28;20033;-78
2021/09/30 07:46:59;;;;;;;5.30;1.58;;;9.20;99.90;;;;;;4993410;28;20030;-79
2021/09/30 07:49:25;;;;;;;4.82;1.80;;;9.40;99.90;;;;;;4993969;28;20106;-79
2021/09/30 07:51:50;;;;;;;3.10;1.73;;;9.50;99.90;;;;;;4995074;28;20105;-78
2021/09/30 07:54:16;;;;;;;2.28;1.25;;;9.60;99.90;;;;;;4997260;28;20037;-78
2021/09/30 07:56:42;;;;;;;5.03;1.15;;;9.70;99.90;;;;;;5014206;28;20026;-79
2021/09/30 07:59:08;;;;;;;4.65;1.70;;;9.90;99.90;;;;;;5015754;28;20049;-78
2021/09/30 08:01:33;;;;;;;2.22;1.25;;;10.10;99.90;;;;;;5028217;28;20524;-79
2021/09/30 08:04:01;;;;;;;3.88;1.45;;;10.30;99.90;;;;;;5030508;28;20088;-81
2021/09/30 08:06:27;;;;;;;5.57;1.13;;;10.50;99.90;;;;;;5045703;28;20029;-78
2021/09/30 08:08:56;;;;;;;2.95;1.08;;;10.80;99.90;;;;;;5017046;28;20022;-78
2021/09/30 08:11:23;;;;;;;4.47;1.10;;;11.00;99.90;;;;;;4992646;28;20027;-78
2021/09/30 08:13:49;;;;;;;5.35;1.20;;;11.40;99.90;;;;;;4999331;28;20041;-78
2021/09/30 08:16:18;;;;;;;1.70;0.90;;;11.80;99.90;;;;;;4998946;28;20369;-79
2021/09/30 08:18:44;;;;;;;4.20;1.20;;;11.60;99.90;;;;;;5012113;28;20034;-78
2021/09/30 08:21:12;;;;;;;1.65;1.05;;;11.80;99.90;;;;;;5011088;28;20029;-78
2021/09/30 08:23:41;;;;;;;4.03;1.10;;;11.80;99.90;;;;;;4998421;28;20042;-78
2021/09/30 08:26:08;;;;;;;4.20;1.00;;;11.60;99.90;;;;;;5003238;28;20034;-77
2021/09/30 08:28:35;;;;;;;1.90;1.38;;;11.20;99.90;;;;;;5002697;28;20031;-78
2021/09/30 08:31:02;;;;;;;4.65;1.52;;;11.30;99.90;;;;;;5003106;28;20029;-80
2021/09/30 08:33:28;;;;;;;4.45;1.13;;;11.40;99.90;;;;;;5004864;28;20034;-78
2021/09/30 08:35:54;;;;;;;1.77;1.10;;;11.70;99.90;;;;;;5002690;28;20037;-79
2021/09/30 08:38:19;;;;;;;3.33;1.10;;;12.50;99.90;;;;;;5003136;28;20041;-79
2021/09/30 08:40:46;;;;;;;2.28;1.25;;;13.00;99.90;;;;;;5004090;28;20030;-80
2021/09/30 08:43:12;;;;;;;2.78;1.15;;;13.40;99.90;;;;;;5004028;28;20092;-78
2021/09/30 08:45:38;;;;;;;4.90;1.10;;;13.90;99.90;;;;;;5047181;23;20043;-74
2021/09/30 08:48:06;;;;;;;4.55;1.10;;;13.90;99.90;;;;;;4982219;28;20026;-74
2021/09/30 08:50:38;;;;;;;1.17;0.80;;;14.40;99.90;;;;;;4984799;28;20034;-74
2021/09/30 08:53:11;;;;;;;1.95;1.20;;;14.60;99.90;;;;;;4985869;28;20049;-74
2021/09/30 08:55:36;;;;;;;2.45;0.88;;;14.80;99.90;;;;;;5002703;28;20073;-76
2021/09/30 08:58:06;;;;;;;1.58;0.85;;;15.90;99.90;;;;;;5009243;28;20030;-75
2021/09/30 09:00:33;;;;;;;4.53;1.45;;;16.30;99.90;;;;;;5008699;28;20022;-75
2021/09/30 09:02:59;;;;;;;3.72;0.80;;;15.50;99.90;;;;;;5006168;28;20018;-75
2021/09/30 09:05:25;;;;;;;2.67;0.93;;;15.50;99.90;;;;;;4993009;28;20034;-75
2021/09/30 09:08:00;;;;;;;2.88;1.00;;;14.70;99.90;;;;;;4991904;28;20088;-74
2021/09/30 09:10:40;;;;;;;1.10;0.65;;;13.70;99.90;;;;;;4991815;28;20499;-73
2021/09/30 09:13:23;;;;;;;3.28;0.90;;;13.60;99.90;;;;;;4991659;28;20041;-74
2021/09/30 09:15:54;;;;;;;1.40;0.77;;;13.90;99.90;;;;;;4989877;28;20030;-74
2021/09/30 09:18:39;;;;;;;4.25;0.80;;;14.90;99.90;;;;;;4991133;28;20022;-74
2021/09/30 09:21:12;;;;;;;3.80;0.77;;;16.90;99.90;;;;;;4991251;28;20022;-73
2021/09/30 09:23:47;;;;;;;2.78;1.00;;;18.10;99.90;;;;;;4971872;28;20747;-73
2021/09/30 09:26:16;;;;;;;2.20;0.60;;;18.50;99.90;;;;;;4971248;28;20101;-75
2021/09/30 09:29:03;;;;;;;2.50;1.10;;;18.40;99.90;;;;;;4972020;28;20030;-74
2021/09/30 09:31:51;;;;;;;4.22;0.80;;;18.40;99.90;;;;;;4971501;28;20035;-75
2021/09/30 09:34:20;;;;;;;2.85;1.05;;;17.90;99.90;;;;;;4971077;28;20114;-75
2021/09/30 09:36:49;;;;;;;1.45;0.60;;;18.00;99.90;;;;;;4971676;28;20031;-76
2021/09/30 09:39:15;;;;;;;3.70;0.60;;;18.30;99.70;;;;;;4971700;28;20018;-74
2021/09/30 09:41:41;;;;;;;1.08;0.60;;;18.20;99.90;;;;;;4971424;28;20547;-74
2021/09/30 09:44:07;;;;;;;1.88;0.73;;;18.50;99.50;;;;;;4971355;28;20018;-75
2021/09/30 09:46:38;;;;;;;2.90;0.40;;;17.80;97.30;;;;;;4970335;28;20046;-74
2021/09/30 09:49:12;;;;;;;2.65;0.80;;;16.90;98.50;;;;;;4983284;28;20041;-74
2021/09/30 09:51:47;;;;;;;1.85;0.63;;;16.00;99.90;;;;;;4991124;28;20030;-75
2021/09/30 09:54:16;;;;;;;3.08;0.70;;;17.10;99.90;;;;;;4990961;28;20030;-75
2021/09/30 09:56:43;;;;;;;1.15;0.50;;;18.90;98.70;;;;;;4990303;28;20037;-75
2021/09/30 09:59:09;;;;;;;1.45;0.70;;;19.90;94.70;;;;;;4990641;28;20034;-75
2021/09/30 10:01:43;;;;;;;1.20;0.50;;;20.30;97.60;;;;;;4989263;28;20026;-76
2021/09/30 10:04:10;;;;;;;1.42;0.43;;;22.00;93.90;;;;;;4990768;28;20056;-76
2021/09/30 10:06:37;;;;;;;4.97;0.73;;;21.30;85.90;;;;;;4990038;28;20026;-75
2021/09/30 10:09:05;;;;;;;1.85;0.47;;;18.50;92.80;;;;;;4990284;28;20362;-75
2021/09/30 10:11:31;;;;;;;1.83;0.63;;;18.60;92.70;;;;;;4988446;28;20042;-74
2021/09/30 10:13:59;;;;;;;2.05;0.40;;;18.80;91.20;;;;;;4990959;28;20034;-75
2021/09/30 10:16:26;;;;;;;0.82;0.38;;;18.50;91.80;;;;;;4990658;28;20029;-75
2021/09/30 10:19:20;;;;;;;2.45;0.70;;;18.30;91.70;;;;;;4991833;28;20547;-75
2021/09/30 10:21:46;;;;;;;1.73;0.77;;;18.30;93.60;;;;;;4994841;28;20042;-75
2021/09/30 10:24:17;;;;;;;1.55;0.55;;;18.80;94.40;;;;;;4995693;28;20499;-74
2021/09/30 10:26:53;;;;;;;2.25;0.70;;;20.00;93.20;;;;;;4993921;28;20030;-75
2021/09/30 10:29:38;;;;;;;1.02;0.30;;;20.80;92.70;;;;;;4995593;28;20442;-75
2021/09/30 10:32:06;;;;;;;3.28;0.40;;;21.40;91.10;;;;;;4995040;28;20034;-74
2021/09/30 10:34:34;;;;;;;2.55;0.90;;;22.70;88.40;;;;;;4993938;28;20346;-74
2021/09/30 10:37:29;;;;;;;3.28;0.63;;;20.90;88.60;;;;;;4976840;28;20507;-74
2021/09/30 10:40:18;;;;;;;2.17;0.70;;;20.80;91.40;;;;;;4976195;28;20053;-75
2021/09/30 10:42:57;;;;;;;4.82;0.82;;;21.10;90.70;;;;;;4975487;28;20181;-74
2021/09/30 10:45:41;;;;;;;2.67;0.70;;;21.30;86.70;;;;;;4974461;28;20535;-73
2021/09/30 10:48:26;;;;;;;3.78;0.80;;;21.30;89.40;;;;;;4975825;28;20030;-74
2021/09/30 10:50:55;;;;;;;2.10;0.52;;;21.10;90.40;;;;;;4987160;28;20061;-74
2021/09/30 10:53:46;;;;;;;1.75;0.50;;;21.90;86.20;;;;;;4995358;28;20670;-74
2021/09/30 10:56:27;;;;;;;1.90;0.68;;;21.40;85.00;;;;;;4992864;28;20034;-74
2021/09/30 10:59:02;;;;;;;2.85;0.63;;;21.60;81.50;;;;;;4993929;28;20033;-74
2021/09/30 11:01:27;;;;;;;2.08;0.57;;;22.00;80.10;;;;;;4994756;28;20026;-73
2021/09/30 11:04:04;;;;;;;1.00;0.40;;;20.10;80.90;;;;;;4994864;28;20029;-73
2021/09/30 11:06:29;;;;;;;1.27;0.55;;;20.30;84.90;;;;;;4994067;28;20032;-75
2021/09/30 11:09:14;;;;;;;2.53;0.77;;;20.20;81.20;;;;;;4994838;28;20113;-74
2021/09/30 11:11:41;;;;;;;4.25;0.55;;;20.70;84.30;;;;;;4994789;28;20042;-75
2021/09/30 11:14:07;;;;;;;1.52;0.73;;;22.50;80.10;;;;;;4994879;28;20026;-74
2021/09/30 11:16:45;;;;;;;1.90;0.65;;;23.50;76.10;;;;;;4992818;28;20026;-73
2021/09/30 11:19:23;;;;;;;5.75;0.80;;;23.10;74.70;;;;;;4994535;28;20025;-74
2021/09/30 11:21:49;;;;;;;1.88;0.50;;;23.20;80.30;;;;;;4994501;28;20027;-73
2021/09/30 11:24:24;;;;;;;1.55;0.60;;;24.10;76.80;;;;;;4994056;28;20101;-73
2021/09/30 11:26:53;;;;;;;1.23;0.50;;;24.10;76.90;;;;;;4992772;28;20110;-76
2021/09/30 11:29:27;;;;;;;1.42;0.60;;;24.60;72.30;;;;;;4994571;28;20105;-75
2021/09/30 11:31:59;;;;;;;2.75;0.90;;;24.00;71.80;;;;;;4995945;28;20030;-74
2021/09/30 11:34:30;;;;;;;3.38;0.65;;;21.60;73.20;;;;;;4992718;28;20034;-74
2021/09/30 11:36:59;;;;;;;2.47;0.70;;;21.20;81.50;;;;;;4994045;28;20036;-74
2021/09/30 11:39:34;;;;;;;1.20;0.40;;;21.80;77.10;;;;;;4992928;28;20370;-73
2021/09/30 11:42:01;;;;;;;2.00;0.68;;;24.00;73.90;;;;;;4994073;28;20030;-73
2021/09/30 11:44:26;;;;;;;1.52;0.40;;;25.20;69.70;;;;;;4993641;28;20015;-75
2021/09/30 11:46:58;;;;;;;1.33;0.50;;;24.20;66.10;;;;;;4991061;28;20507;-76
2021/09/30 11:49:24;;;;;;;1.15;0.40;;;23.00;64.70;;;;;;4974808;28;20696;-75
2021/09/30 11:51:56;;;;;;;3.40;0.60;;;21.80;63.60;;;;;;4979168;28;20057;-75
2021/09/30 11:54:34;;;;;;;0.70;0.40;;;21.40;65.00;;;;;;4992760;28;20097;-75
2021/09/30 11:57:00;;;;;;;1.35;0.52;;;21.00;68.10;;;;;;4993840;28;20053;-75
2021/09/30 11:59:28;;;;;;;1.13;0.40;;;22.90;67.10;;;;;;4993678;28;20080;-76
2021/09/30 12:01:56;;;;;;;1.23;0.60;;;24.80;61.10;;;;;;4993663;28;20493;-76
2021/09/30 12:04:40;;;;;;;0.63;0.20;;;25.80;61.80;;;;;;4993140;28;20105;-75
2021/09/30 12:07:21;;;;;;;1.85;0.65;;;27.00;58.40;;;;;;4993540;28;20026;-74
2021/09/30 12:09:56;;;;;;;3.10;0.63;;;28.40;56.60;;;;;;4993461;28;20026;-76
2021/09/30 12:12:32;;;;;;;0.70;0.43;;;27.50;55.30;;;;;;4993649;28;20032;-75
2021/09/30 12:14:59;;;;;;;2.78;0.40;;;26.70;56.60;;;;;;4992676;28;20031;-75
2021/09/30 12:17:36;;;;;;;2.17;0.40;;;26.40;54.90;;;;;;4990997;28;20113;-76
2021/09/30 12:20:06;;;;;;;1.85;0.52;;;27.30;55.50;;;;;;4992407;28;20501;-75
2021/09/30 12:22:49;;;;;;;3.08;0.90;;;24.90;57.90;;;;;;4985103;28;20027;-76
2021/09/30 12:25:26;;;;;;;2.08;0.55;;;24.20;61.90;;;;;;4988016;28;20041;-75
2021/09/30 12:27:54;;;;;;;1.15;0.40;;;26.50;60.90;;;;;;4973940;28;20030;-75
2021/09/30 12:30:26;;;;;;;3.70;0.47;;;27.90;55.40;;;;;;4973881;28;20034;-75
2021/09/30 12:33:00;;;;;;;;;;;28.80;55.70;;;;;;4974058;28;20501;-75
2021/09/30 12:35:37;;;;;;;2.13;0.60;;;27.10;53.90;;;;;;4981418;28;19906;-75
2021/09/30 12:38:09;;;;;;;1.70;0.40;;;24.50;58.90;;;;;;4992892;28;20022;-75
2021/09/30 12:40:39;;;;;;;2.47;0.77;;;24.60;58.70;;;;;;4992227;28;20110;-75
2021/09/30 12:43:15;;;;;;;1.20;0.45;;;24.10;63.00;;;;;;4992278;28;20503;-76
2021/09/30 12:45:44;;;;;;;5.32;0.50;;;25.70;56.90;;;;;;4990537;28;20417;-75
2021/09/30 12:48:12;;;;;;;3.40;0.50;;;26.30;56.10;;;;;;4992656;28;20026;-75
2021/09/30 12:50:48;;;;;;;3.13;0.52;;;26.10;57.20;;;;;;4993008;28;20077;-75
2021/09/30 12:53:15;;;;;;;2.97;0.65;;;26.70;55.00;;;;;;4992876;28;20027;-76
2021/09/30 12:55:42;;;;;;;1.23;0.50;;;27.90;57.30;;;;;;4991849;28;20218;-76
2021/09/30 12:58:36;;;;;;;2.90;0.55;;;29.20;53.90;;;;;;4991204;28;20098;-75
2021/09/30 13:01:34;;;;;;;1.33;0.35;;;29.10;52.70;;;;;;4976881;28;20026;-75
2021/09/30 13:04:26;;;;;;;0.98;0.50;;;26.80;52.20;;;;;;4979759;28;20027;-74
2021/09/30 13:07:02;;;;;;;4.68;0.60;;;23.00;59.20;;;;;;4973231;28;20174;-74
2021/09/30 13:09:31;;;;;;;2.10;0.65;;;23.30;59.60;;;;;;4973412;28;20022;-73
2021/09/30 13:12:01;;;;;;;3.33;0.55;;;25.50;58.60;;;;;;4973622;28;20109;-76
2021/09/30 13:14:33;;;;;;;1.13;0.45;;;27.50;54.10;;;;;;4972627;28;20077;-75
2021/09/30 13:17:23;;;;;;;2.60;0.50;;;27.10;53.60;;;;;;4973140;28;20027;-75
2021/09/30 13:19:51;;;;;;;1.10;0.43;;;27.50;52.80;;;;;;4972814;28;20019;-77
2021/09/30 13:22:35;;;;;;;3.15;0.60;;;28.30;53.30;;;;;;4981700;28;20484;-76
2021/09/30 13:25:06;;;;;;;1.73;0.60;;;27.70;52.70;;;;;;4991393;28;20089;-76
2021/09/30 13:27:35;;;;;;;3.33;0.75;;;26.70;52.40;;;;;;4992413;28;20022;-77
2021/09/30 13:30:06;;;;;;;1.88;0.52;;;26.30;53.90;;;;;;4992270;28;20046;-75
2021/09/30 13:32:32;;;;;;;2.38;1.20;;;25.70;54.60;;;;;;4992205;28;20022;-75
2021/09/30 13:34:58;;;;;;;1.17;0.38;;;24.90;55.30;;;;;;4991782;28;20813;-75
2021/09/30 13:37:24;;;;;;;1.67;0.70;;;25.20;55.20;;;;;;4991672;28;20030;-76
2021/09/30 13:39:54;;;;;;;1.35;0.52;;;27.40;54.10;;;;;;4991950;28;20022;-75
2021/09/30 13:42:20;;;;;;;1.23;0.60;;;29.60;50.30;;;;;;4992133;28;20396;-75
2021/09/30 13:44:46;;;;;;;1.17;0.30;;;30.70;47.00;;;;;;4991390;28;20029;-77
2021/09/30 13:47:11;;;;;;;0.75;0.40;;;29.90;46.80;;;;;;4991622;28;20485;-76
2021/09/30 13:49:37;;;;;;;2.05;0.47;;;28.00;49.50;;;;;;4990912;28;20440;-75
2021/09/30 13:52:03;;;;;;;1.40;0.57;;;28.20;48.10;;;;;;4991832;28;20109;-73
2021/09/30 13:54:29;;;;;;;0.88;0.30;;;30.00;48.20;;;;;;4990608;28;20101;-74
2021/09/30 13:56:55;;;;;;;2.35;0.50;;;30.00;48.40;;;;;;4991808;28;20018;-73
2021/09/30 13:59:20;;;;;;;6.63;0.50;;;31.20;45.50;;;;;;4991635;28;20516;-74
2021/09/30 14:01:46;;;;;;;1.98;0.80;;;31.90;45.40;;;;;;4991577;28;20432;-75
2021/09/30 14:04:12;;;;;;;1.60;0.55;;;28.90;48.40;;;;;;4991977;28;20484;-75
2021/09/30 14:06:37;;;;;;;3.28;0.70;;;26.30;49.80;;;;;;4990841;28;20019;-75
2021/09/30 14:09:03;;;;;;;1.88;0.88;;;24.40;53.40;;;;;;4991661;28;20026;-75
2021/09/30 14:11:29;;;;;;;1.20;0.40;;;24.80;54.60;;;;;;4990775;28;20030;-75
2021/09/30 14:13:55;;;;;;;1.80;0.90;;;26.80;52.10;;;;;;4991501;28;20034;-76
2021/09/30 14:16:22;;;;;;;1.70;0.60;;;27.10;51.10;;;;;;4990598;28;20038;-75
2021/09/30 14:18:48;;;;;;;0.93;0.55;;;28.90;49.40;;;;;;4990479;28;20113;-73
2021/09/30 14:21:14;;;;;;;3.13;0.90;;;29.80;46.50;;;;;;4983099;28;20031;-74
2021/09/30 14:23:40;;;;;;;3.58;0.65;;;28.20;48.80;;;;;;4991565;28;20481;-76
2021/09/30 14:26:06;;;;;;;0.93;0.30;;;28.40;48.60;;;;;;4990866;28;20022;-75
2021/09/30 14:28:32;;;;;;;0.45;0.30;;;28.30;49.30;;;;;;4991760;28;20030;-74
2021/09/30 14:30:59;;;;;;;0.75;0.28;;;29.20;49.20;;;;;;4990943;28;20092;-75
2021/09/30 14:33:26;;;;;;;2.55;0.50;;;30.20;47.40;;;;;;4992648;28;20023;-75
2021/09/30 14:35:52;;;;;;;1.17;0.40;;;28.90;46.10;;;;;;4991209;28;20031;-76
2021/09/30 14:38:18;;;;;;;2.53;0.30;;;30.10;47.30;;;;;;4994726;28;20023;-79
2021/09/30 14:40:50;;;;;;;1.80;0.60;;;32.00;44.70;;;;;;4995012;28;20041;-79
2021/09/30 14:43:21;;;;;;;2.67;0.45;;;33.40;44.00;;;;;;4992791;28;20093;-79
2021/09/30 14:45:47;;;;;;;1.10;0.60;;;34.00;42.80;;;;;;4993283;28;20050;-80
2021/09/30 14:48:13;;;;;;;0.63;0.45;;;32.10;43.30;;;;;;4993017;28;20030;-80
2021/09/30 14:50:40;;;;;;;1.85;0.50;;;31.90;43.80;;;;;;4992699;28;20092;-79
2021/09/30 14:53:06;;;;;;;0.88;0.38;;;32.30;42.80;;;;;;4993206;28;20030;-78
2021/09/30 14:55:32;;;;;;;4.25;0.55;;;31.00;40.90;;;;;;4993261;28;20029;-79
2021/09/30 14:57:58;;;;;;;1.13;0.32;;;30.00;43.80;;;;;;4993363;28;20030;-79
2021/09/30 15:00:24;;;;;;;0.63;0.38;;;29.60;42.50;;;;;;4992856;28;20022;-78
2021/09/30 15:02:49;;;;;;;1.15;0.47;;;29.90;43.90;;;;;;4992047;28;20549;-77
2021/09/30 15:05:15;;;;;;;2.58;0.60;;;30.00;43.20;;;;;;4990645;28;20369;-78
2021/09/30 15:07:42;;;;;;;1.48;0.55;;;30.10;43.40;;;;;;4994769;28;20505;-76
2021/09/30 15:10:08;;;;;;;1.48;0.50;;;28.70;42.80;;;;;;4994818;28;20038;-77
2021/09/30 15:12:33;;;;;;;4.07;0.40;;;28.50;48.20;;;;;;4995203;28;20074;-75
2021/09/30 15:14:59;;;;;;;0.98;0.45;;;27.00;48.90;;;;;;4993952;28;20026;-77
2021/09/30 15:17:35;;;;;;;0.77;0.30;;;27.20;51.90;;;;;;4994271;28;20030;-76
2021/09/30 15:22:31;;;;;;;0.82;0.30;;;28.00;46.90;;;;;;4994749;28;20019;-75
2021/09/30 15:24:57;;;;;;;0.60;0.35;;;28.60;44.30;;;;;;4993740;28;20473;-76
2021/09/30 15:27:23;;;;;;;1.30;0.50;;;28.80;47.00;;;;;;4994518;28;20033;-78
2021/09/30 15:29:49;;;;;;;1.00;0.50;;;28.00;44.10;;;;;;4994451;28;20022;-77
2021/09/30 15:32:15;;;;;;;0.90;0.32;;;25.70;47.40;;;;;;4976729;28;20388;-77
2021/09/30 15:34:40;;;;;;;1.30;0.20;;;23.40;50.40;;;;;;4974299;28;20401;-78
2021/09/30 15:37:06;;;;;;;0.98;0.40;;;24.20;52.30;;;;;;4975097;28;20137;-77
2021/09/30 15:39:33;;;;;;;0.60;0.47;;;25.70;49.80;;;;;;4975227;28;20019;-76
2021/09/30 15:42:00;;;;;;;2.35;0.80;;;27.40;49.30;;;;;;4974741;28;20085;-77
2021/09/30 15:44:27;;;;;;;1.73;0.93;;;28.80;47.90;;;;;;4978466;28;20033;-78
2021/09/30 15:46:53;;;;;;;2.65;0.65;;;26.30;50.80;;;;;;4993927;28;20022;-76
2021/09/30 15:49:19;;;;;;;2.85;0.77;;;25.60;52.60;;;;;;4994593;28;20077;-76
2021/09/30 15:51:45;;;;;;;1.20;0.57;;;26.20;51.50;;;;;;4993259;28;20037;-77